Time;durP1;ratioP1;P1;durP2;ratioP2;P2;SDS_P1;SDS_P2;PMS_P1;PMS_P2;Temp;Humidity;BMP_temperature;BMP_pressure;BME280_temperature;BME280_humidity;BME280_pressure;Samples;Min_cycle;Max_cycle;Signal;HPM_P1;HPM_P2
2023/06/09 04:48:07;;;;;;;4.20;4.00;;;22.10;90.20;;;;;;4977166;28;20448;-65
2023/06/09 04:50:33;;;;;;;4.18;3.88;;;22.80;71.90;;;;;;4977724;28;20211;-65
2023/06/09 04:53:03;;;;;;;;;;;22.80;62.00;;;;;;4977347;28;20209;-65
2023/06/09 04:55:30;;;;;;;;;;;22.60;64.80;;;;;;4976817;28;20373;-66
2023/06/09 04:57:57;;;;;;;;;;;22.60;64.80;;;;;;4977020;28;19922;-66
2023/06/09 05:00:24;;;;;;;;;;;22.50;66.00;;;;;;4977600;28;19932;-67
2023/06/09 05:02:51;;;;;;;;;;;22.60;70.40;;;;;;4976995;28;20008;-66
2023/06/09 05:05:19;;;;;;;;;;;23.00;65.50;;;;;;4976914;28;19969;-66
2023/06/09 05:07:45;;;;;;;;;;;23.70;66.80;;;;;;4976837;28;19933;-66
2023/06/09 05:10:12;;;;;;;;;;;24.50;59.30;;;;;;4976823;28;20293;-68
2023/06/09 05:12:39;;;;;;;;;;;25.40;57.70;;;;;;4976866;28;19922;-64
2023/06/09 05:15:06;;;;;;;;;;;26.10;56.30;;;;;;4976463;28;20445;-64
2023/06/09 05:17:33;;;;;;;;;;;26.60;51.00;;;;;;4976691;28;19929;-64
2023/06/09 05:20:00;;;;;;;;;;;26.60;50.30;;;;;;4976716;28;20000;-64
2023/06/09 05:22:28;;;;;;;;;;;27.00;50.80;;;;;;4976831;28;19922;-64
2023/06/09 05:24:55;;;;;;;;;;;27.40;50.50;;;;;;4976716;28;19922;-64
2023/06/09 05:27:22;;;;;;;;;;;27.90;47.70;;;;;;4976575;28;19922;-64
2023/06/09 05:29:48;;;;;;;;;;;28.10;48.10;;;;;;4976192;28;19926;-64
2023/06/09 05:32:15;;;;;;;;;;;28.50;49.00;;;;;;4976104;28;19969;-64
2023/06/09 05:34:41;;;;;;;;;;;28.80;47.60;;;;;;4976688;28;19991;-64
2023/06/09 05:37:09;;;;;;;;;;;29.00;47.90;;;;;;4977024;28;19922;-64
2023/06/09 05:39:37;;;;;;;;;;;29.50;48.80;;;;;;4976603;28;19957;-64
2023/06/09 05:42:06;;;;;;;;;;;;;;;;;;4976828;28;19984;-64
2023/06/09 05:44:33;;;;;;;4.00;3.70;;;30.20;48.60;;;;;;4976369;28;20353;-64
2023/06/09 05:46:59;;;;;;;3.50;3.30;;;30.60;45.70;;;;;;4976095;28;20222;-64
2023/06/09 05:49:26;;;;;;;;;;;30.80;45.70;;;;;;4975711;28;20709;-64
2023/06/09 05:51:52;;;;;;;;;;;31.30;45.40;;;;;;4975377;28;20028;-64
2023/06/09 05:54:19;;;;;;;;;;;31.80;46.90;;;;;;4976124;28;19922;-64
2023/06/09 05:56:48;;;;;;;;;;;;;;;;;;4976225;28;20297;-64
2023/06/09 05:59:20;;;;;;;;;;;33.00;44.30;;;;;;4976238;28;19929;-64
2023/06/09 06:01:47;;;;;;;;;;;33.60;44.80;;;;;;4976086;28;19922;-64
2023/06/09 06:04:13;;;;;;;;;;;34.00;45.30;;;;;;4975932;28;19925;-64
2023/06/09 06:06:40;;;;;;;;;;;33.70;44.90;;;;;;4975487;28;20282;-64
2023/06/09 06:09:07;;;;;;;;;;;33.30;45.90;;;;;;4975579;28;20288;-64
2023/06/09 06:11:34;;;;;;;2.78;2.67;;;33.10;46.60;;;;;;4974590;28;20861;-64
2023/06/09 06:14:01;;;;;;;3.00;2.90;;;33.20;47.90;;;;;;4975495;28;20202;-64
2023/06/09 06:16:29;;;;;;;2.92;2.72;;;33.30;51.90;;;;;;4975207;28;20227;-64
2023/06/09 06:18:55;;;;;;;2.70;2.60;;;33.50;46.00;;;;;;4975360;28;20204;-64
2023/06/09 06:21:22;;;;;;;2.90;2.80;;;33.60;46.20;;;;;;4974899;28;20199;-64
2023/06/09 06:23:49;;;;;;;2.50;2.40;;;33.40;45.00;;;;;;4974916;28;20570;-64
2023/06/09 06:26:15;;;;;;;2.70;2.60;;;33.90;44.60;;;;;;4975187;28;20621;-64
2023/06/09 06:28:42;;;;;;;2.70;2.58;;;34.20;45.40;;;;;;4975114;28;20202;-64
2023/06/09 06:31:09;;;;;;;3.40;2.85;;;35.60;49.80;;;;;;4975051;28;20246;-64
2023/06/09 06:33:39;;;;;;;2.92;2.83;;;34.50;41.00;;;;;;4975123;28;20203;-64
2023/06/09 06:36:06;;;;;;;2.17;2.00;;;34.90;41.20;;;;;;4974915;28;20241;-64
2023/06/09 06:38:32;;;;;;;2.83;2.65;;;35.60;44.60;;;;;;4974984;28;20202;-64
2023/06/09 06:40:59;;;;;;;2.30;2.20;;;35.60;45.00;;;;;;4975071;28;20204;-64
2023/06/09 06:43:26;;;;;;;3.55;3.25;;;35.70;41.50;;;;;;4974932;28;20258;-65
2023/06/09 06:45:52;;;;;;;2.83;2.63;;;35.60;39.60;;;;;;4974818;28;20562;-64
2023/06/09 06:48:19;;;;;;;;;;;35.50;43.60;;;;;;4975116;28;20265;-64
2023/06/09 06:50:47;;;;;;;;;;;35.80;45.90;;;;;;4974987;28;20377;-64
2023/06/09 06:53:13;;;;;;;;;;;35.40;37.10;;;;;;4975272;28;20293;-64
2023/06/09 06:55:40;;;;;;;;;;;35.40;37.30;;;;;;4975133;28;19945;-64
2023/06/09 06:58:06;;;;;;;;;;;34.90;36.50;;;;;;4974914;28;20472;-64
2023/06/09 07:00:35;;;;;;;;;;;34.50;37.90;;;;;;4975056;28;19930;-64
2023/06/09 07:03:02;;;;;;;1.60;1.50;;;34.70;37.50;;;;;;4977487;28;19922;-64
2023/06/09 07:05:28;;;;;;;2.92;2.80;;;35.00;37.80;;;;;;4978319;28;20520;-64
2023/06/09 07:07:56;;;;;;;2.53;2.42;;;35.30;38.70;;;;;;4978740;28;20202;-63
2023/06/09 07:10:23;;;;;;;3.08;2.72;;;34.90;39.10;;;;;;4978345;28;20277;-63
2023/06/09 07:12:50;;;;;;;3.13;2.77;;;;;;;;;;4978236;28;20449;-65
2023/06/09 07:15:17;;;;;;;;;;;34.70;38.50;;;;;;4978545;28;20678;-65
2023/06/09 07:17:44;;;;;;;;;;;34.40;37.60;;;;;;4979013;28;19922;-65
2023/06/09 07:20:11;;;;;;;;;;;34.60;38.10;;;;;;4978896;28;19985;-65
2023/06/09 07:22:39;;;;;;;;;;;35.30;36.80;;;;;;4978498;28;20381;-65
2023/06/09 07:25:08;;;;;;;;;;;35.30;36.80;;;;;;4978800;28;19976;-66
2023/06/09 07:27:34;;;;;;;;;;;35.00;36.10;;;;;;4978377;28;20401;-66
2023/06/09 07:30:01;;;;;;;2.35;2.20;;;34.90;36.60;;;;;;4977331;28;20500;-65
2023/06/09 07:32:29;;;;;;;2.15;2.10;;;34.60;36.30;;;;;;4978275;28;20199;-65
2023/06/09 07:34:57;;;;;;;3.20;3.00;;;35.00;37.10;;;;;;4978172;28;20254;-65
2023/06/09 07:37:25;;;;;;;2.33;2.22;;;35.50;36.60;;;;;;4978006;28;20234;-65
2023/06/09 07:39:51;;;;;;;2.17;2.08;;;34.70;36.70;;;;;;4978072;28;20209;-66
2023/06/09 07:42:20;;;;;;;2.55;2.10;;;35.10;37.20;;;;;;4978043;28;20203;-66
2023/06/09 07:44:46;;;;;;;2.17;2.13;;;35.30;36.00;;;;;;4977988;28;20599;-66
2023/06/09 07:47:13;;;;;;;2.15;2.03;;;35.60;36.70;;;;;;4977803;28;20222;-66
2023/06/09 07:49:40;;;;;;;2.05;1.95;;;35.80;37.60;;;;;;4977486;28;20214;-66
2023/06/09 07:52:08;;;;;;;1.88;1.77;;;36.20;37.90;;;;;;4977829;28;20203;-65
2023/06/09 07:54:35;;;;;;;2.35;2.17;;;36.20;39.70;;;;;;4977803;28;20214;-65
2023/06/09 07:57:02;;;;;;;2.22;2.00;;;36.30;32.10;;;;;;4977383;28;20229;-65
2023/06/09 07:59:31;;;;;;;2.28;2.17;;;;;;;;;;4977608;28;20611;-64
2023/06/09 08:01:57;;;;;;;2.40;2.10;;;35.80;27.40;;;;;;4977639;28;20294;-65
2023/06/09 08:04:25;;;;;;;2.08;1.98;;;35.40;27.90;;;;;;4977594;28;20199;-65
2023/06/09 08:06:52;;;;;;;2.40;2.30;;;34.40;28.60;;;;;;4977519;28;20238;-65
2023/06/09 08:09:18;;;;;;;2.00;1.90;;;33.10;28.70;;;;;;4977613;28;20195;-65
2023/06/09 08:11:45;;;;;;;2.03;1.92;;;31.70;31.10;;;;;;4977457;28;20223;-65
2023/06/09 08:14:13;;;;;;;2.05;2.05;;;30.70;32.60;;;;;;4976840;28;20199;-65
2023/06/09 08:16:41;;;;;;;2.58;2.47;;;29.90;33.20;;;;;;4977503;28;20230;-65
2023/06/09 08:19:07;;;;;;;2.20;2.10;;;29.10;33.90;;;;;;4977604;28;20241;-65
2023/06/09 08:21:34;;;;;;;2.22;2.13;;;28.10;32.70;;;;;;4977423;28;20198;-64
2023/06/09 08:24:01;;;;;;;2.00;2.00;;;27.40;43.70;;;;;;4977331;28;20239;-64
2023/06/09 08:26:28;;;;;;;3.72;2.05;;;26.70;45.10;;;;;;4977297;28;20219;-65
2023/06/09 08:28:55;;;;;;;3.42;2.20;;;26.00;49.60;;;;;;4977071;28;20544;-64
2023/06/09 08:31:24;;;;;;;2.53;2.38;;;25.10;52.30;;;;;;4977228;28;20210;-65
2023/06/09 08:33:53;;;;;;;2.50;2.40;;;25.10;53.50;;;;;;4976350;28;20529;-64
2023/06/09 08:36:20;;;;;;;2.63;2.42;;;24.80;59.70;;;;;;4977056;28;20223;-65
2023/06/09 08:38:47;;;;;;;2.70;2.60;;;24.40;58.50;;;;;;4977109;28;20203;-65
2023/06/09 08:41:16;;;;;;;2.63;2.42;;;24.20;68.70;;;;;;4976997;28;20233;-65
2023/06/09 08:43:43;;;;;;;2.38;2.28;;;24.10;62.50;;;;;;4976996;28;20211;-65
2023/06/09 08:46:11;;;;;;;2.55;2.45;;;23.90;60.50;;;;;;4976435;28;20314;-65
2023/06/09 08:48:42;;;;;;;2.28;2.17;;;23.60;59.40;;;;;;4976624;28;20211;-66
2023/06/09 08:51:10;;;;;;;5.00;2.20;;;23.40;61.10;;;;;;4976825;28;20270;-66
2023/06/09 08:53:37;;;;;;;2.78;2.67;;;23.40;64.20;;;;;;4976548;28;20682;-64
2023/06/09 08:56:05;;;;;;;2.55;2.40;;;23.30;66.20;;;;;;4976398;28;20706;-65
2023/06/09 08:58:32;;;;;;;3.47;3.17;;;23.30;68.00;;;;;;4976445;28;20543;-64
2023/06/09 09:00:59;;;;;;;2.92;2.75;;;23.10;65.00;;;;;;4976654;28;20199;-64
2023/06/09 09:03:26;;;;;;;11.85;10.68;;;23.00;64.80;;;;;;4976611;28;20612;-64
2023/06/09 09:05:52;;;;;;;2.47;2.38;;;22.90;62.30;;;;;;4976615;28;20230;-64
2023/06/09 09:08:21;;;;;;;2.55;2.45;;;22.80;63.90;;;;;;4976211;28;20570;-64
2023/06/09 09:10:48;;;;;;;2.33;2.22;;;22.80;64.10;;;;;;4976344;28;20309;-64
2023/06/09 09:13:15;;;;;;;2.78;2.50;;;22.70;64.50;;;;;;4976440;28;20203;-65
2023/06/09 09:15:48;;;;;;;2.35;2.25;;;22.50;63.20;;;;;;4975993;28;20724;-65
2023/06/09 09:18:15;;;;;;;2.42;2.30;;;22.60;65.60;;;;;;4976296;28;20203;-65
2023/06/09 09:20:43;;;;;;;2.38;2.20;;;22.50;64.80;;;;;;4976832;28;20199;-65
2023/06/09 09:23:10;;;;;;;3.03;2.33;;;22.40;69.00;;;;;;4976295;28;20210;-65
2023/06/09 09:25:38;;;;;;;4.38;2.25;;;21.70;64.40;;;;;;4975212;28;20225;-66
2023/06/09 09:28:06;;;;;;;2.47;2.28;;;22.50;62.30;;;;;;4976260;28;20242;-65
2023/06/09 09:30:45;;;;;;;2.38;2.17;;;22.40;59.50;;;;;;4976289;28;20733;-66
2023/06/09 09:33:12;;;;;;;2.80;2.60;;;22.50;58.70;;;;;;4976489;28;20237;-66
2023/06/09 09:35:40;;;;;;;2.58;2.38;;;22.70;59.80;;;;;;4975913;28;20765;-65
2023/06/09 09:38:13;;;;;;;2.45;2.33;;;22.70;60.60;;;;;;4975828;28;20217;-67
2023/06/09 09:40:45;;;;;;;2.67;2.50;;;22.80;58.70;;;;;;4976122;28;20215;-66
2023/06/09 09:43:12;;;;;;;2.97;2.88;;;22.80;59.80;;;;;;4975967;28;20203;-66
2023/06/09 09:45:44;;;;;;;3.10;3.00;;;22.70;61.70;;;;;;4976197;28;20241;-66
2023/06/09 09:48:12;;;;;;;3.03;2.80;;;22.70;61.60;;;;;;4977590;28;20290;-66
2023/06/09 09:50:41;;;;;;;3.10;2.90;;;22.60;64.40;;;;;;4978806;28;20211;-66
2023/06/09 09:53:08;;;;;;;2.90;2.70;;;22.60;65.70;;;;;;4980145;28;20254;-66
2023/06/09 09:55:38;;;;;;;2.92;2.83;;;22.60;65.20;;;;;;4978759;28;20234;-67
2023/06/09 09:58:08;;;;;;;2.70;2.60;;;22.60;68.70;;;;;;4978327;28;20689;-67
2023/06/09 10:00:37;;;;;;;3.50;3.00;;;22.60;72.70;;;;;;4978885;28;20183;-67
2023/06/09 10:03:08;;;;;;;3.10;2.90;;;22.50;69.50;;;;;;4978717;28;20211;-66
2023/06/09 10:05:39;;;;;;;3.15;2.90;;;22.50;71.60;;;;;;4978020;28;20690;-67
2023/06/09 10:08:09;;;;;;;3.13;2.88;;;22.40;68.90;;;;;;4978813;28;20222;-67
2023/06/09 10:10:36;;;;;;;2.72;2.55;;;22.50;63.60;;;;;;4978767;28;20313;-67
2023/06/09 10:13:05;;;;;;;3.05;2.85;;;22.60;63.90;;;;;;4979200;28;20230;-67
2023/06/09 10:15:33;;;;;;;3.20;3.00;;;22.80;64.80;;;;;;4978336;28;20281;-67
2023/06/09 10:18:01;;;;;;;3.00;2.85;;;22.70;63.20;;;;;;4979496;28;20203;-67
2023/06/09 10:20:29;;;;;;;2.72;2.63;;;22.70;61.80;;;;;;4979088;28;20207;-66
2023/06/09 10:22:55;;;;;;;2.95;2.78;;;22.80;62.50;;;;;;4975077;28;20207;-67
2023/06/09 10:25:26;;;;;;;3.13;2.92;;;22.90;63.20;;;;;;4976540;28;20214;-66
2023/06/09 10:27:53;;;;;;;2.80;2.60;;;23.00;62.00;;;;;;4978228;28;20551;-64
2023/06/09 10:30:21;;;;;;;3.58;3.38;;;23.10;62.10;;;;;;4978599;28;20375;-65
2023/06/09 10:32:57;;;;;;;3.00;2.80;;;23.10;63.10;;;;;;4978338;28;20206;-66
2023/06/09 10:35:27;;;;;;;3.50;3.20;;;23.10;64.60;;;;;;4975356;28;20557;-65
2023/06/09 10:37:56;;;;;;;3.45;3.15;;;23.00;63.80;;;;;;4974517;28;20689;-65
2023/06/09 10:40:30;;;;;;;3.17;2.90;;;23.10;63.60;;;;;;4974823;28;20209;-65
2023/06/09 10:43:28;;;;;;;2.63;2.50;;;23.10;64.30;;;;;;4975522;28;20186;-65
2023/06/09 10:45:56;;;;;;;3.08;2.88;;;23.10;66.10;;;;;;4979660;28;20303;-64
2023/06/09 10:48:48;;;;;;;3.10;2.80;;;23.30;67.80;;;;;;4977873;28;20555;-64
2023/06/09 10:51:40;;;;;;;2.88;2.72;;;23.40;62.00;;;;;;4975447;28;20582;-65
2023/06/09 10:54:24;;;;;;;3.30;3.03;;;23.50;59.70;;;;;;4974960;28;20253;-64
2023/06/09 10:56:54;;;;;;;3.15;2.95;;;23.50;59.90;;;;;;4974428;28;20764;-65
2023/06/09 11:00:09;;;;;;;3.55;2.95;;;23.50;61.00;;;;;;4974875;28;20203;-64
2023/06/09 11:02:36;;;;;;;3.28;3.13;;;23.50;61.50;;;;;;4974518;28;20190;-65
2023/06/09 11:05:05;;;;;;;3.35;3.15;;;23.50;59.60;;;;;;4974423;28;20613;-65
2023/06/09 11:07:39;;;;;;;3.38;3.17;;;23.50;57.30;;;;;;4974585;28;20223;-65
2023/06/09 11:10:37;;;;;;;3.13;2.85;;;23.40;57.20;;;;;;4974820;28;20187;-66
2023/06/09 11:13:25;;;;;;;3.38;3.17;;;;;;;;;;4974992;28;20193;-66
2023/06/09 11:16:00;;;;;;;3.15;3.05;;;;;;;;;;4974515;28;20702;-67
2023/06/09 11:18:28;;;;;;;3.20;3.00;;;;;;;;;;4974670;28;20190;-67
2023/06/09 11:21:12;;;;;;;3.00;2.90;;;;;;;;;;4976335;28;20199;-67
2023/06/09 11:23:55;;;;;;;3.67;3.45;;;;;;;;;;4974281;28;20253;-67
2023/06/09 11:26:23;;;;;;;3.90;3.17;;;;;;;;;;4974749;28;20278;-67
2023/06/09 11:28:51;;;;;;;2.95;2.75;;;;;;;;;;4974599;28;20298;-67
2023/06/09 11:31:18;;;;;;;3.10;2.90;;;;;;;;;;4974341;28;20659;-67
2023/06/09 11:33:49;;;;;;;3.20;3.00;;;;;;;;;;4974391;28;20230;-67
2023/06/09 11:36:32;;;;;;;2.97;2.78;;;;;;;;;;4974704;28;20228;-67
2023/06/09 11:39:06;;;;;;;7.07;3.13;;;;;;;;;;4972901;28;20230;-67
2023/06/09 11:41:33;;;;;;;2.90;2.75;;;;;;;;;;4974202;28;20183;-67
2023/06/09 11:44:00;;;;;;;4.07;3.08;;;;;;;;;;4974184;28;20207;-67
2023/06/09 11:46:27;;;;;;;2.78;2.67;;;;;;;;;;4974021;28;20222;-67
2023/06/09 11:48:58;;;;;;;3.65;3.45;;;;;;;;;;4974513;28;20210;-67
2023/06/09 11:51:25;;;;;;;3.10;2.88;;;;;;;;;;4978260;28;20317;-67
2023/06/09 11:53:52;;;;;;;2.97;2.75;;;;;;;;;;4977785;28;20265;-67
2023/06/09 11:56:21;;;;;;;2.67;2.47;;;;;;;;;;4977874;28;20229;-67
2023/06/09 11:58:48;;;;;;;3.22;3.13;;;;;;;;;;4977663;28;20202;-67
2023/06/09 12:01:16;;;;;;;3.42;3.22;;;;;;;;;;4977702;28;20199;-67
2023/06/09 12:03:43;;;;;;;2.97;2.85;;;;;;;;;;4977612;28;20629;-67
2023/06/09 12:06:10;;;;;;;2.60;2.50;;;;;;;;;;4977171;28;20231;-67
2023/06/09 12:08:37;;;;;;;2.85;2.67;;;;;;;;;;4977547;28;20210;-67
2023/06/09 12:11:04;;;;;;;3.17;2.92;;;;;;;;;;4977321;28;20601;-67
2023/06/09 12:13:45;;;;;;;3.50;3.20;;;;;;;;;;4977353;28;20208;-67
2023/06/09 12:16:13;;;;;;;3.53;3.33;;;;;;;;;;4977311;28;20313;-68
2023/06/09 13:35:52;;;;;;;8.23;7.63;;;;;;;;;;5285390;23;20700;-66
2023/06/09 13:38:19;;;;;;;2.60;2.50;;;;;;;;;;4975616;28;20266;-66
2023/06/09 13:40:47;;;;;;;2.80;2.70;;;;;;;;;;4975824;28;20203;-65
2023/06/09 13:43:14;;;;;;;2.92;2.83;;;;;;;;;;4975724;28;20211;-65
2023/06/09 13:45:41;;;;;;;3.15;2.95;;;;;;;;;;4975720;28;20234;-65
2023/06/09 13:48:09;;;;;;;7.65;3.00;;;;;;;;;;4975713;28;20202;-65
2023/06/09 13:50:36;;;;;;;3.00;2.88;;;;;;;;;;4975418;28;20203;-64
2023/06/09 13:53:05;;;;;;;3.42;2.60;;;;;;;;;;4975659;28;20315;-64
2023/06/09 13:55:32;;;;;;;3.22;3.03;;;;;;;;;;4975478;28;20227;-64
2023/06/09 13:57:59;;;;;;;3.58;3.28;;;;;;;;;;4975558;28;20206;-64
2023/06/09 14:00:26;;;;;;;3.40;3.15;;;;;;;;;;4975503;28;20203;-64
2023/06/09 14:02:53;;;;;;;3.13;2.80;;;;;;;;;;4975517;28;20290;-64
2023/06/09 14:05:25;;;;;;;3.10;2.90;;;;;;;;;;4975453;28;20277;-64
2023/06/09 14:07:52;;;;;;;2.70;2.60;;;;;;;;;;4975584;28;20218;-64
2023/06/09 14:10:20;;;;;;;2.50;2.30;;;;;;;;;;4975158;28;20206;-64
2023/06/09 14:12:48;;;;;;;2.45;2.35;;;;;;;;;;4974685;28;20222;-64
2023/06/09 14:15:16;;;;;;;2.72;2.53;;;;;;;;;;4974939;28;20721;-64
2023/06/09 14:17:49;;;;;;;2.40;2.30;;;;;;;;;;4974950;28;20732;-64
2023/06/09 14:20:16;;;;;;;2.53;2.42;;;;;;;;;;4974911;28;20231;-65
2023/06/09 14:22:45;;;;;;;2.78;2.60;;;;;;;;;;4975190;28;20195;-64
2023/06/09 14:25:17;;;;;;;2.72;2.63;;;23.50;59.60;;;;;;4975014;28;20262;-64
2023/06/09 14:27:46;;;;;;;3.10;2.88;;;25.90;48.20;;;;;;4975065;28;20194;-64
2023/06/09 14:30:14;;;;;;;2.40;2.30;;;25.80;49.30;;;;;;4974633;28;20202;-64
2023/06/09 14:32:44;;;;;;;2.65;2.55;;;25.80;49.90;;;;;;4974537;28;20357;-64
2023/06/09 14:35:11;;;;;;;3.33;3.05;;;25.70;49.60;;;;;;4975217;28;20230;-64
2023/06/09 14:37:38;;;;;;;4.18;2.58;;;25.40;50.00;;;;;;4974914;28;20301;-64
2023/06/09 14:40:06;;;;;;;2.58;2.38;;;25.30;50.10;;;;;;4974582;28;20238;-64
2023/06/09 14:42:32;;;;;;;3.28;2.97;;;25.10;51.00;;;;;;4974806;28;20210;-64
2023/06/09 14:45:00;;;;;;;2.80;2.70;;;24.90;51.90;;;;;;4975043;28;20231;-63
2023/06/09 14:47:27;;;;;;;2.70;2.60;;;24.70;56.30;;;;;;4974671;28;20547;-64
2023/06/09 14:49:54;;;;;;;2.80;2.70;;;24.70;54.70;;;;;;4974989;28;20624;-64
2023/06/09 14:52:20;;;;;;;2.88;2.75;;;24.80;55.30;;;;;;4975026;28;20222;-64
2023/06/09 14:54:48;;;;;;;2.75;2.65;;;24.90;54.90;;;;;;4974854;28;20230;-65
2023/06/09 14:57:17;;;;;;;2.90;2.70;;;24.90;55.00;;;;;;4974940;28;20194;-65
2023/06/09 14:59:45;;;;;;;2.58;2.47;;;25.00;56.30;;;;;;4973604;28;20206;-64
2023/06/09 15:02:13;;;;;;;3.72;2.28;;;25.00;54.60;;;;;;4975292;28;20230;-65
2023/06/09 15:04:42;;;;;;;3.28;2.97;;;25.10;54.90;;;;;;4974687;28;20226;-64
2023/06/09 15:07:12;;;;;;;3.25;3.03;;;25.10;55.00;;;;;;4974550;28;20191;-64
2023/06/09 15:09:42;;;;;;;3.00;2.58;;;25.00;56.10;;;;;;4974742;28;20194;-64
2023/06/09 15:12:12;;;;;;;2.55;2.42;;;25.00;55.70;;;;;;4974608;28;20301;-64
2023/06/09 15:14:40;;;;;;;2.88;2.67;;;25.00;55.70;;;;;;4974144;28;20227;-64
2023/06/09 15:17:07;;;;;;;2.53;2.42;;;25.00;56.30;;;;;;4974635;28;20606;-64
2023/06/09 15:19:35;;;;;;;2.50;2.40;;;25.10;57.30;;;;;;4974588;28;20574;-64
2023/06/09 15:22:06;;;;;;;2.58;2.38;;;25.10;54.90;;;;;;4974601;28;20203;-64
2023/06/09 15:24:35;;;;;;;3.88;2.85;;;25.10;55.60;;;;;;4977761;28;20563;-64
2023/06/09 15:27:03;;;;;;;2.50;2.30;;;24.90;55.30;;;;;;4977327;28;20569;-64
2023/06/09 15:29:31;;;;;;;2.85;2.67;;;25.10;56.90;;;;;;4977954;28;20253;-64
2023/06/09 15:31:58;;;;;;;2.25;2.15;;;24.80;55.20;;;;;;4978279;28;20660;-64
2023/06/09 15:34:26;;;;;;;2.72;2.53;;;24.90;51.80;;;;;;4977711;28;20314;-64
2023/06/09 15:37:02;;;;;;;2.72;2.63;;;25.30;50.00;;;;;;4977439;28;20581;-65
2023/06/09 15:39:30;;;;;;;2.95;2.75;;;24.70;50.70;;;;;;4976630;28;20233;-65
2023/06/09 15:41:59;;;;;;;2.70;2.60;;;24.70;52.40;;;;;;4978076;28;20224;-65
2023/06/09 15:44:26;;;;;;;44.00;26.42;;;24.60;52.60;;;;;;4977481;28;20293;-65
2023/06/09 15:46:53;;;;;;;2.30;2.20;;;24.50;53.50;;;;;;4977660;28;20249;-65
2023/06/09 15:49:20;;;;;;;3.05;2.85;;;24.70;53.10;;;;;;4977786;28;20202;-65
2023/06/09 15:51:48;;;;;;;2.40;2.30;;;24.70;52.50;;;;;;4977711;28;20203;-65
2023/06/09 15:54:17;;;;;;;2.45;2.35;;;24.80;53.40;;;;;;4960395;28;20213;-65
2023/06/09 15:56:44;;;;;;;2.30;2.20;;;24.90;52.90;;;;;;4977788;28;20241;-65
2023/06/09 15:59:12;;;;;;;2.80;2.63;;;25.10;53.10;;;;;;4977789;28;20210;-63
2023/06/09 16:01:39;;;;;;;2.90;2.70;;;25.10;54.10;;;;;;4976773;28;20203;-64
2023/06/09 16:04:06;;;;;;;2.55;2.45;;;25.10;53.50;;;;;;4977334;28;20207;-65
2023/06/09 16:06:33;;;;;;;2.30;2.20;;;25.00;54.30;;;;;;4977780;28;20290;-64
2023/06/09 16:09:01;;;;;;;2.83;2.72;;;25.00;53.20;;;;;;4977505;28;20273;-64
2023/06/09 16:11:29;;;;;;;2.60;2.40;;;24.90;52.80;;;;;;4977439;28;20605;-64
2023/06/09 16:13:58;;;;;;;2.60;2.47;;;24.70;52.90;;;;;;4977522;28;20219;-64
2023/06/09 16:16:26;;;;;;;3.15;2.85;;;24.60;52.60;;;;;;4977476;28;20627;-64
2023/06/09 16:18:53;;;;;;;2.47;2.38;;;24.50;52.70;;;;;;4977493;28;20202;-64
2023/06/09 16:21:22;;;;;;;2.50;2.40;;;24.40;51.80;;;;;;4978382;28;20211;-65
2023/06/09 16:23:50;;;;;;;2.35;2.25;;;24.30;51.20;;;;;;4977033;28;20574;-64
2023/06/09 16:26:19;;;;;;;3.83;2.67;;;24.30;51.70;;;;;;4976994;28;20757;-64
2023/06/09 16:28:48;;;;;;;3.17;2.92;;;24.20;52.00;;;;;;4977036;28;20217;-66
2023/06/09 16:31:15;;;;;;;2.72;2.53;;;24.20;51.70;;;;;;4976826;28;20203;-66
2023/06/09 16:33:42;;;;;;;2.45;2.35;;;24.20;52.20;;;;;;4976557;28;20254;-66
2023/06/09 16:36:10;;;;;;;2.67;2.40;;;24.20;52.10;;;;;;4976771;28;20258;-66
2023/06/09 16:38:38;;;;;;;2.35;2.25;;;24.10;52.00;;;;;;4977225;28;20210;-66
2023/06/09 16:41:06;;;;;;;2.75;2.55;;;24.20;51.90;;;;;;4977057;28;20273;-66
2023/06/09 16:43:33;;;;;;;3.00;2.80;;;24.20;53.20;;;;;;4977017;28;20234;-67
2023/06/09 16:46:02;;;;;;;3.03;2.70;;;24.10;53.10;;;;;;4977001;28;20702;-67
2023/06/09 16:48:29;;;;;;;2.35;2.25;;;24.00;53.00;;;;;;4977094;28;20203;-67
2023/06/09 16:50:56;;;;;;;1.90;1.88;;;24.00;53.40;;;;;;4977080;28;20323;-66
2023/06/09 16:53:24;;;;;;;2.45;2.35;;;23.90;53.50;;;;;;4977033;28;20230;-67
2023/06/09 16:55:53;;;;;;;3.15;2.95;;;23.90;53.10;;;;;;4976586;28;20583;-67
2023/06/09 16:58:21;;;;;;;2.80;2.45;;;23.80;51.00;;;;;;4974999;28;20202;-66
2023/06/09 17:00:49;;;;;;;2.40;2.30;;;23.70;50.70;;;;;;4975824;28;20184;-67
2023/06/09 17:03:21;;;;;;;2.90;2.70;;;23.60;50.90;;;;;;4976293;28;20688;-66
2023/06/09 17:05:49;;;;;;;2.30;2.20;;;23.50;51.20;;;;;;4976430;28;20245;-67
2023/06/09 17:08:16;;;;;;;2.38;2.28;;;23.40;51.90;;;;;;4976754;28;20207;-67
2023/06/09 17:10:47;;;;;;;2.40;2.20;;;23.40;52.60;;;;;;4976615;28;20241;-67
2023/06/09 17:13:15;;;;;;;5.03;2.58;;;23.30;53.50;;;;;;4975144;28;20305;-67
2023/06/09 17:15:43;;;;;;;2.58;2.47;;;23.30;54.40;;;;;;4976125;28;20226;-67
2023/06/09 17:18:11;;;;;;;2.58;2.47;;;23.30;54.70;;;;;;4976297;28;20229;-67
2023/06/09 17:20:39;;;;;;;2.20;2.10;;;23.30;54.60;;;;;;4976145;28;20206;-67
2023/06/09 17:23:07;;;;;;;2.28;2.17;;;23.30;54.70;;;;;;4976820;28;20199;-67
2023/06/09 17:25:35;;;;;;;1.98;1.98;;;23.30;55.00;;;;;;4976403;28;20227;-67
2023/06/09 17:28:02;;;;;;;2.38;2.25;;;23.20;54.70;;;;;;4975909;28;20202;-67
2023/06/09 17:30:29;;;;;;;2.17;2.00;;;23.20;54.50;;;;;;4976319;28;20241;-66
2023/06/09 17:32:56;;;;;;;1.90;1.90;;;23.20;51.70;;;;;;4976182;28;20301;-67
2023/06/09 17:35:22;;;;;;;2.20;2.10;;;23.10;49.90;;;;;;4976110;28;20238;-66
2023/06/09 17:37:50;;;;;;;2.28;2.10;;;23.10;50.10;;;;;;4975816;28;20210;-67
2023/06/09 17:40:17;;;;;;;181.25;114.10;;;23.00;49.60;;;;;;4976247;28;20205;-67
2023/06/09 17:42:44;;;;;;;2.25;2.05;;;23.00;49.60;;;;;;4976161;28;20203;-67
2023/06/09 17:45:11;;;;;;;2.03;1.92;;;23.00;50.10;;;;;;4975595;28;20610;-67
2023/06/09 17:47:38;;;;;;;2.20;2.13;;;23.00;50.40;;;;;;4975188;28;20203;-67
2023/06/09 17:50:06;;;;;;;3.60;2.10;;;22.90;50.60;;;;;;4976061;28;20213;-68
2023/06/09 17:52:34;;;;;;;2.25;2.15;;;22.90;51.10;;;;;;4975649;28;20678;-67
2023/06/09 17:55:03;;;;;;;1.90;1.90;;;22.90;51.80;;;;;;4975694;28;20318;-67
2023/06/09 17:57:30;;;;;;;2.47;2.38;;;22.90;53.20;;;;;;4976007;28;20253;-67
2023/06/09 17:59:57;;;;;;;2.67;2.47;;;22.80;54.20;;;;;;4975943;28;20199;-66
2023/06/09 18:02:24;;;;;;;2.40;2.00;;;22.80;54.90;;;;;;4975630;28;20646;-65
2023/06/09 18:04:51;;;;;;;2.13;2.03;;;22.70;55.70;;;;;;4975534;28;20259;-65
2023/06/09 18:07:18;;;;;;;1.90;1.90;;;22.70;56.30;;;;;;4975508;28;20290;-66
2023/06/09 18:09:45;;;;;;;2.22;2.13;;;22.70;56.70;;;;;;4975622;28;20209;-66
2023/06/09 18:12:13;;;;;;;2.45;2.17;;;22.60;57.10;;;;;;4975871;28;20238;-66
2023/06/09 18:14:40;;;;;;;2.35;2.25;;;22.50;57.50;;;;;;4975417;28;20242;-66
2023/06/09 18:17:07;;;;;;;2.03;1.92;;;22.50;58.20;;;;;;4975396;28;20332;-66
2023/06/09 18:19:34;;;;;;;2.65;2.25;;;22.40;58.60;;;;;;4975274;28;20231;-66
2023/06/09 18:22:01;;;;;;;2.30;2.20;;;22.40;59.10;;;;;;4975274;28;20207;-66
2023/06/09 18:24:27;;;;;;;2.30;1.95;;;22.40;59.50;;;;;;4974836;28;20706;-67
2023/06/09 18:26:54;;;;;;;2.20;2.10;;;22.30;60.20;;;;;;4975280;28;20186;-66
2023/06/09 18:29:22;;;;;;;1.98;1.90;;;22.30;61.30;;;;;;4975168;28;20207;-67
2023/06/09 18:31:49;;;;;;;2.17;2.08;;;22.20;61.90;;;;;;4975031;28;20282;-66
2023/06/09 18:34:15;;;;;;;2.17;2.08;;;22.10;62.70;;;;;;4975038;28;20226;-66
2023/06/09 18:36:42;;;;;;;2.60;2.50;;;22.00;63.50;;;;;;4974984;28;20214;-66
2023/06/09 18:39:10;;;;;;;2.17;2.08;;;22.00;64.40;;;;;;4975159;28;20268;-66
2023/06/09 18:41:36;;;;;;;2.58;2.30;;;21.90;65.60;;;;;;4975000;28;20207;-66
2023/06/09 18:44:14;;;;;;;2.35;2.25;;;21.80;65.90;;;;;;4974991;28;20199;-67
2023/06/09 18:46:42;;;;;;;2.10;2.00;;;21.80;67.70;;;;;;4974898;28;20202;-67
2023/06/09 18:49:09;;;;;;;5.68;2.45;;;21.70;68.90;;;;;;4974663;28;20667;-67
2023/06/09 18:51:36;;;;;;;2.75;2.65;;;21.60;69.50;;;;;;4974925;28;20207;-67
2023/06/09 18:54:02;;;;;;;3.13;2.30;;;21.60;70.60;;;;;;4975015;28;20218;-66
2023/06/09 18:56:29;;;;;;;2.10;2.10;;;21.50;71.50;;;;;;4975045;28;20198;-67
2023/06/09 18:58:56;;;;;;;2.22;2.13;;;21.40;71.60;;;;;;4974692;28;20203;-67
2023/06/09 19:01:23;;;;;;;2.15;2.05;;;21.40;72.60;;;;;;4974905;28;20214;-68
2023/06/09 19:03:52;;;;;;;2.17;2.08;;;21.30;74.30;;;;;;4974652;28;20697;-69
2023/06/09 19:06:18;;;;;;;2.03;1.92;;;21.20;75.00;;;;;;4975029;28;20226;-68
2023/06/09 19:08:45;;;;;;;2.50;2.40;;;21.10;76.00;;;;;;4975095;28;20206;-68
2023/06/09 19:11:12;;;;;;;2.47;2.33;;;21.00;76.90;;;;;;4975333;28;20214;-68
2023/06/09 19:13:39;;;;;;;2.15;2.15;;;21.00;78.30;;;;;;4974998;28;20218;-68
2023/06/09 19:16:06;;;;;;;2.40;2.30;;;20.90;78.40;;;;;;4974810;28;20219;-68
2023/06/09 19:18:32;;;;;;;2.33;2.17;;;20.90;79.50;;;;;;4975004;28;20210;-68
2023/06/09 19:21:00;;;;;;;2.10;2.00;;;20.80;80.40;;;;;;4975352;28;20210;-68
2023/06/09 19:23:27;;;;;;;2.40;2.30;;;20.70;81.90;;;;;;4974660;28;20769;-68